Time;durP1;ratioP1;P1;durP2;ratioP2;P2;SDS_P1;SDS_P2;PMS_P1;PMS_P2;Temp;Humidity;BMP_temperature;BMP_pressure;BME280_temperature;BME280_humidity;BME280_pressure;Samples;Min_cycle;Max_cycle;Signal;HPM_P1;HPM_P2
2022/05/02 00:00:56;;;;;;;21.35;14.70;;;;;;;7.64;59.08;100590.80;2140115;83;31122;-58
2022/05/02 00:03:58;;;;;;;24.05;15.35;;;;;;;7.62;59.24;100590.44;2139977;83;34147;-58
2022/05/02 00:07:00;;;;;;;24.80;15.85;;;;;;;7.59;59.10;100589.62;2117859;84;30225;-59
2022/05/02 00:10:04;;;;;;;26.37;14.43;;;;;;;7.56;59.29;100592.86;2140969;83;27690;-58
2022/05/02 00:13:07;;;;;;;21.48;15.05;;;;;;;7.51;59.56;100592.13;2118177;84;29515;-60
2022/05/02 00:16:09;;;;;;;24.85;15.65;;;;;;;7.46;59.48;100590.94;2140380;83;31656;-58
2022/05/02 00:19:11;;;;;;;28.12;15.68;;;;;;;7.41;59.39;100591.09;2117490;83;34109;-57
2022/05/02 00:22:13;;;;;;;24.57;16.77;;;;;;;7.35;59.76;100593.09;2140426;83;28780;-57
2022/05/02 00:25:16;;;;;;;27.32;16.60;;;;;;;7.28;59.58;100589.27;2117343;84;28276;-57
2022/05/02 00:28:18;;;;;;;25.60;15.23;;;;;;;7.23;59.81;100581.87;2140115;83;29555;-57
2022/05/02 00:31:19;;;;;;;21.05;14.23;;;;;;;7.18;59.91;100586.49;2117139;84;33218;-59
2022/05/02 00:34:21;;;;;;;24.92;16.35;;;;;;;7.12;59.82;100580.01;2140497;83;33748;-57
2022/05/02 00:37:23;;;;;;;24.55;15.35;;;;;;;7.09;59.86;100580.09;2117656;84;29772;-58
2022/05/02 00:40:25;;;;;;;24.12;15.75;;;;;;;7.05;59.97;100580.66;2140534;83;27642;-59
2022/05/02 00:43:27;;;;;;;23.52;14.50;;;;;;;7.00;60.22;100574.59;2117865;84;29025;-58
2022/05/02 00:46:29;;;;;;;23.18;15.20;;;;;;;6.95;60.25;100574.73;2140195;83;32275;-58
2022/05/02 00:49:31;;;;;;;26.23;15.60;;;;;;;6.91;60.57;100577.55;2117586;84;33474;-58
2022/05/02 00:52:34;;;;;;;26.07;15.60;;;;;;;6.88;60.45;100576.30;2140001;83;30883;-61
2022/05/02 00:55:37;;;;;;;24.47;15.45;;;;;;;6.84;60.74;100574.20;2117599;84;27717;-58
2022/05/02 00:58:39;;;;;;;24.72;15.08;;;;;;;6.80;60.80;100567.21;2140643;83;29456;-59
2022/05/02 01:01:41;;;;;;;25.85;15.88;;;;;;;6.76;60.95;100569.10;2117595;84;31412;-58
2022/05/02 01:04:44;;;;;;;27.40;15.85;;;;;;;6.74;61.30;100564.72;2140220;82;33518;-58
2022/05/02 01:07:46;;;;;;;22.98;14.93;;;;;;;6.74;61.26;100568.27;2117171;83;29612;-58
2022/05/02 01:10:49;;;;;;;23.22;15.88;;;;;;;6.74;61.33;100567.38;2140068;83;27697;-58
2022/05/02 01:13:51;;;;;;;26.30;15.43;;;;;;;6.74;61.56;100562.94;2117578;83;28672;-59
2022/05/02 01:16:54;;;;;;;23.73;15.55;;;;;;;6.73;61.58;100565.19;2140014;83;30885;-58
2022/05/02 01:19:57;;;;;;;23.77;16.27;;;;;;;6.72;61.63;100570.09;2117454;84;32968;-58
2022/05/02 01:23:00;;;;;;;26.87;16.05;;;;;;;6.71;61.72;100566.13;2140392;83;28733;-60
2022/05/02 01:26:03;;;;;;;22.55;14.98;;;;;;;6.68;61.81;100560.45;2117309;84;27737;-58
2022/05/02 01:29:06;;;;;;;26.52;16.93;;;;;;;6.66;61.86;100568.49;2140132;83;28691;-58
2022/05/02 01:32:13;;;;;;;26.68;15.95;;;;;;;6.62;61.80;100559.31;2117531;84;31742;-58
2022/05/02 01:35:15;;;;;;;27.00;14.73;;;;;;;6.58;62.18;100561.17;2140371;83;33014;-60
2022/05/02 01:38:18;;;;;;;22.27;14.87;;;;;;;6.54;62.05;100564.39;2117464;84;28822;-58
2022/05/02 01:41:22;;;;;;;21.20;14.68;;;;;;;6.49;62.00;100561.45;2140549;83;28321;-61
2022/05/02 01:44:24;;;;;;;26.73;15.45;;;;;;;6.45;61.92;100562.45;2117436;84;29357;-58
2022/05/02 01:47:26;;;;;;;23.05;15.50;;;;;;;6.39;62.43;100555.52;2140023;83;31909;-59
2022/05/02 01:50:28;;;;;;;23.52;14.45;;;;;;;6.34;62.26;100558.75;2117096;83;33835;-58
2022/05/02 01:53:30;;;;;;;22.13;15.70;;;;;;;6.30;62.29;100560.63;2140372;83;28754;-58
2022/05/02 01:56:32;;;;;;;22.48;15.75;;;;;;;6.27;62.70;100558.05;2117329;84;28293;-58
2022/05/02 01:59:34;;;;;;;25.80;15.75;;;;;;;6.25;62.73;100555.88;2140400;83;29854;-57
2022/05/02 02:02:36;;;;;;;21.42;14.70;;;;;;;6.23;62.63;100555.05;2117096;84;31905;-58
2022/05/02 02:05:49;;;;;;;23.70;15.72;;;;;;;6.19;62.62;100552.94;2113484;83;27873;-58
2022/05/02 02:08:51;;;;;;;23.35;15.03;;;;;;;6.16;62.87;100553.49;2138810;83;29162;-58
2022/05/02 02:11:53;;;;;;;26.10;16.17;;;;;;;6.13;63.05;100552.23;2139152;83;27939;-58
2022/05/02 02:14:55;;;;;;;27.10;16.23;;;;;;;6.10;63.00;100549.22;2138909;83;28970;-59
2022/05/02 02:17:57;;;;;;;22.77;14.90;;;;;;;6.06;63.35;100545.75;2139235;83;31566;-59
2022/05/02 02:20:59;;;;;;;24.50;15.70;;;;;;;6.02;63.32;100540.55;2138845;83;34181;-58
2022/05/02 02:27:33;;;;;;;25.43;14.90;;;;;;;5.96;63.39;100545.55;2119333;83;27671;-58
2022/05/02 02:30:37;;;;;;;23.22;15.48;;;;;;;5.91;63.24;100549.67;2122916;83;27849;-65
2022/05/02 02:33:41;;;;;;;24.20;15.23;;;;;;;5.87;63.32;100556.45;2122919;83;31061;-62
2022/05/02 02:36:43;;;;;;;30.68;16.23;;;;;;;5.82;63.24;100558.34;2123346;83;33830;-64
2022/05/02 02:39:45;;;;;;;24.95;15.48;;;;;;;5.76;63.53;100558.91;2123330;83;28723;-59
2022/05/02 02:42:47;;;;;;;27.95;15.63;;;;;;;5.72;63.74;100567.00;2123051;83;28278;-67
2022/05/02 02:45:49;;;;;;;24.18;17.02;;;;;;;5.67;63.87;100564.91;2122906;83;29627;-60
2022/05/02 02:48:51;;;;;;;26.45;16.93;;;;;;;5.60;64.12;100562.42;2123192;83;31336;-63
2022/05/02 02:51:53;;;;;;;24.70;15.50;;;;;;;5.55;64.45;100561.66;2123203;83;33482;-59
2022/05/02 02:54:55;;;;;;;26.87;16.95;;;;;;;5.53;64.32;100566.60;2123018;83;29929;-63
2022/05/02 02:57:57;;;;;;;27.40;16.73;;;;;;;5.52;64.44;100572.82;2123627;83;27831;-61
2022/05/02 03:00:59;;;;;;;23.27;16.45;;;;;;;5.48;64.69;100565.36;2123028;83;30060;-59
2022/05/02 03:06:01;;;;;;;25.12;16.67;;;;;;;5.44;64.76;100567.23;2132487;83;31997;-57
2022/05/02 03:07:05;;;;;;;26.23;15.60;;;;;;;5.41;64.89;100571.75;2142756;83;33006;-59
2022/05/02 03:10:09;;;;;;;24.82;15.55;;;;;;;5.37;65.00;100572.28;2145796;82;29924;-57
2022/05/02 03:13:11;;;;;;;23.80;16.37;;;;;;;5.32;64.87;100568.86;2146163;83;27737;-58
2022/05/02 03:16:13;;;;;;;27.77;17.12;;;;;;;5.29;64.89;100563.61;2146144;83;28787;-58
2022/05/02 03:19:16;;;;;;;30.35;16.30;;;;;;;5.26;65.17;100565.89;2145863;82;31485;-57
2022/05/02 03:22:18;;;;;;;27.87;17.05;;;;;;;5.23;65.08;100561.97;2145739;82;33841;-57
2022/05/02 03:25:20;;;;;;;25.08;16.65;;;;;;;5.22;65.04;100563.31;2145870;82;30049;-58
2022/05/02 03:28:22;;;;;;;26.27;17.42;;;;;;;5.20;65.09;100562.03;2147593;82;27647;-57
2022/05/02 03:31:26;;;;;;;27.27;16.10;;;;;;;5.19;65.07;100566.92;2147406;82;29914;-65
2022/05/02 03:34:28;;;;;;;25.70;15.70;;;;;;;5.18;65.21;100566.51;2147366;82;31877;-58
2022/05/02 03:37:30;;;;;;;26.45;17.30;;;;;;;5.19;65.20;100570.91;2147560;82;33449;-59
2022/05/02 03:40:32;;;;;;;28.83;16.45;;;;;;;5.21;65.46;100561.12;2147390;82;29960;-61
2022/05/02 03:43:35;;;;;;;24.23;16.17;;;;;;;5.22;65.53;100568.19;2147573;82;28068;-64
2022/05/02 03:46:37;;;;;;;28.98;16.23;;;;;;;5.26;65.64;100561.02;2147571;82;29145;-57
2022/05/02 03:49:39;;;;;;;24.92;16.55;;;;;;;5.28;65.62;100560.53;2147386;82;32225;-57
2022/05/02 03:52:41;;;;;;;31.52;16.87;;;;;;;5.31;65.75;100565.30;2147522;82;34300;-57
2022/05/02 03:55:45;;;;;;;26.82;15.40;;;;;;;5.35;65.91;100570.12;2147550;82;29585;-66
2022/05/02 03:58:47;;;;;;;25.00;15.00;;;;;;;5.39;65.72;100572.23;2147993;82;27749;-58
2022/05/02 04:01:50;;;;;;;28.87;16.80;;;;;;;5.43;65.79;100574.78;2147917;82;29855;-58
2022/05/02 04:04:51;;;;;;;25.05;16.15;;;;;;;5.49;65.82;100577.73;2147835;82;31181;-57
2022/05/02 04:07:53;;;;;;;27.00;16.30;;;;;;;5.53;66.05;100579.42;2147517;82;34135;-57
2022/05/02 04:10:55;;;;;;;25.02;16.80;;;;;;;5.58;66.07;100578.86;2147540;82;30206;-57
2022/05/02 04:13:58;;;;;;;25.45;16.32;;;;;;;5.67;66.04;100578.20;2147966;82;27980;-58
2022/05/02 04:17:01;;;;;;;25.75;17.27;;;;;;;5.77;66.17;100575.75;2147535;82;28707;-58
2022/05/02 04:20:05;;;;;;;31.52;16.48;;;;;;;5.88;66.16;100572.34;2147524;82;31874;-68
2022/05/02 04:23:07;;;;;;;25.20;16.02;;;;;;;6.01;66.35;100580.03;2147845;82;33186;-60
2022/05/02 04:26:09;;;;;;;26.15;15.85;;;;;;;6.15;66.34;100575.21;2147711;82;30150;-61
2022/05/02 04:29:12;;;;;;;26.15;15.80;;;;;;;6.30;66.38;100575.70;2147757;82;28196;-67
2022/05/02 04:32:14;;;;;;;24.02;16.60;;;;;;;6.46;66.35;100584.16;2147536;82;29706;-58
2022/05/02 04:35:16;;;;;;;24.67;16.07;;;;;;;6.61;66.43;100581.53;2147641;82;32366;-68
2022/05/02 04:38:18;;;;;;;23.85;14.98;;;;;;;6.78;66.43;100575.26;2147498;82;34157;-57
2022/05/02 04:41:19;;;;;;;27.20;15.48;;;;;;;6.95;66.36;100574.73;2147635;82;29655;-66
2022/05/02 04:44:22;;;;;;;24.82;16.73;;;;;;;7.15;66.38;100574.59;2147693;82;27622;-58
2022/05/02 04:47:24;;;;;;;26.80;16.40;;;;;;;7.35;66.31;100575.77;2147516;82;29912;-57
2022/05/02 04:50:26;;;;;;;28.42;18.50;;;;;;;7.58;66.36;100569.20;2147510;82;32235;-59
2022/05/02 04:53:29;;;;;;;28.32;17.50;;;;;;;7.94;66.46;100568.05;2147453;82;34322;-71
2022/05/02 04:56:30;;;;;;;30.50;15.85;;;;;;;8.65;66.79;100565.52;2147682;82;30423;-57
2022/05/02 04:59:32;;;;;;;23.50;14.30;;;;;;;9.65;66.38;100564.31;2148035;82;27516;-63
2022/05/02 05:02:34;;;;;;;20.50;14.30;;;;;;;10.69;65.55;100562.07;2147493;82;29883;-58
2022/05/02 05:05:36;;;;;;;21.23;13.60;;;;;;;11.63;64.18;100555.84;2147787;82;32288;-58
2022/05/02 05:08:39;;;;;;;23.60;13.72;;;;;;;12.16;63.09;100559.45;2148111;82;33647;-60
2022/05/02 05:12:16;;;;;;;20.48;14.00;;;;;;;12.44;62.06;100557.98;2147911;82;29663;-60
2022/05/02 05:19:06;;;;;;;22.85;14.38;;;;;;;12.81;60.82;100564.05;2147500;82;29302;-61
2022/05/02 05:22:31;;;;;;;18.35;13.18;;;;;;;13.01;60.29;100552.68;2146742;82;30688;-59
2022/05/02 05:25:50;;;;;;;19.67;13.20;;;;;;;13.43;59.73;100557.95;2147848;82;37300;-59
2022/05/02 05:28:57;;;;;;;19.55;11.97;;;;;;;13.90;59.27;100549.39;2143960;83;30399;-61
2022/05/02 05:32:27;;;;;;;20.32;12.10;;;;;;;14.22;58.69;100544.38;2121559;83;27727;-58
2022/05/02 05:35:53;;;;;;;22.32;14.28;;;;;;;14.44;57.97;100546.62;2144166;83;29044;-58
2022/05/02 05:39:04;;;;;;;25.80;13.95;;;;;;;14.60;57.29;100541.12;2104272;84;32463;-63
2022/05/02 05:42:30;;;;;;;22.07;13.43;;;;;;;14.86;56.77;100546.74;2104380;84;32954;-58
2022/05/02 05:46:09;;;;;;;21.73;12.20;;;;;;;15.16;56.07;100546.58;2104374;84;30000;-59
2022/05/02 05:49:44;;;;;;;21.57;12.98;;;;;;;15.45;55.70;100538.42;2086070;85;27598;-59
2022/05/02 05:53:09;;;;;;;19.37;12.47;;;;;;;16.15;54.09;100538.28;2104175;84;28695;-59
2022/05/02 05:56:41;;;;;;;21.17;12.68;;;;;;;16.15;54.09;100538.28;2104420;84;31422;-59
2022/05/02 06:00:09;;;;;;;17.70;12.70;;;;;;;16.23;53.37;100538.63;2016623;87;34192;-59
2022/05/02 06:03:17;;;;;;;19.77;12.73;;;;;;;16.39;52.98;100542.45;2037031;87;29967;-63
2022/05/02 06:06:20;;;;;;;17.05;13.45;;;;;;;16.55;52.39;100546.30;2036563;87;27670;-63
2022/05/02 06:09:23;;;;;;;22.07;13.35;;;;;;;16.68;52.15;100549.02;2037044;87;28722;-61
2022/05/02 06:12:26;;;;;;;20.60;13.18;;;;;;;16.86;51.87;100553.11;2037204;87;31274;-69
2022/05/02 06:18:50;;;;;;;22.75;13.70;;;;;;;17.67;51.56;100556.72;2036725;87;30260;-59
2022/05/02 06:21:58;;;;;;;18.45;12.33;;;;;;;18.37;50.49;100548.20;2036971;87;27734;-59
2022/05/02 06:25:01;;;;;;;19.15;12.53;;;;;;;19.18;50.43;100551.34;2036921;87;28635;-59
2022/05/02 06:28:07;;;;;;;19.12;12.63;;;;;;;20.17;48.94;100548.53;2036571;87;32253;-61
2022/05/02 06:31:21;;;;;;;15.38;11.63;;;;;;;20.87;48.15;100554.73;2044949;87;32993;-59
2022/05/02 06:34:29;;;;;;;21.23;13.58;;;;;;;21.17;46.92;100553.48;2097540;84;29080;-63
2022/05/02 06:38:03;;;;;;;18.42;12.60;;;;;;;21.20;46.27;100558.14;2150102;82;27713;-58
2022/05/02 06:41:30;;;;;;;21.42;12.00;;;;;;;21.06;45.50;100555.30;2149678;82;29113;-69
2022/05/02 06:45:16;;;;;;;20.25;13.58;;;;;;;21.13;45.19;100557.48;2149319;82;27685;-59
2022/05/02 06:48:38;;;;;;;17.30;12.40;;;;;;;21.46;44.36;100558.13;2149790;82;33111;-59
2022/05/02 06:51:43;;;;;;;17.25;12.18;;;;;;;21.77;43.67;100560.25;2092550;84;29091;-61
2022/05/02 06:55:06;;;;;;;19.60;12.00;;;;;;;22.26;43.07;100557.51;2115829;84;27726;-58
2022/05/02 06:58:34;;;;;;;17.15;12.63;;;;;;;22.72;42.28;100556.34;2112961;84;28696;-59
2022/05/02 07:01:53;;;;;;;20.35;11.85;;;;;;;23.15;41.57;100549.91;2115377;84;31840;-68
2022/05/02 07:04:56;;;;;;;14.78;12.20;;;;;;;23.51;40.82;100548.60;2115775;84;32958;-60
2022/05/02 07:08:06;;;;;;;15.15;11.75;;;;;;;23.85;40.16;100545.69;2115317;84;29852;-60
2022/05/02 07:11:09;;;;;;;17.95;12.47;;;;;;;24.20;39.94;100541.72;2115929;84;27697;-63
2022/05/02 07:14:42;;;;;;;18.95;13.00;;;;;;;24.39;39.25;100541.52;2115657;84;29528;-64
2022/05/02 07:17:55;;;;;;;13.30;11.28;;;;;;;24.62;38.35;100543.73;2116100;84;31428;-59
2022/05/02 07:21:31;;;;;;;19.07;12.88;;;;;;;24.66;37.87;100540.14;2115407;84;33112;-59
2022/05/02 07:25:15;;;;;;;18.42;12.35;;;;;;;24.48;37.19;100542.44;2115495;84;29447;-63
2022/05/02 07:28:44;;;;;;;20.68;12.18;;;;;;;24.17;37.49;100535.19;2107844;84;27537;-60
2022/05/02 07:31:48;;;;;;;18.30;11.80;;;;;;;24.00;37.38;100536.95;2106208;84;28846;-72
2022/05/02 07:34:53;;;;;;;18.12;13.18;;;;;;;23.79;37.23;100538.98;2106163;84;32006;-59
2022/05/02 07:37:56;;;;;;;18.62;12.30;;;;;;;23.58;37.42;100542.52;2106158;84;33661;-59
2022/05/02 07:44:24;;;;;;;16.40;11.97;;;;;;;23.54;37.25;100542.47;2106076;84;27653;-59
2022/05/02 07:47:28;;;;;;;18.73;12.23;;;;;;;23.56;37.21;100542.69;2105924;84;29521;-62
2022/05/02 07:50:31;;;;;;;15.48;12.15;;;;;;;23.55;36.96;100540.97;2106151;84;30993;-59
2022/05/02 07:53:34;;;;;;;19.25;11.93;;;;;;;23.51;37.06;100544.50;2105888;84;34130;-59
2022/05/02 07:56:36;;;;;;;22.30;13.35;;;;;;;23.44;36.95;100542.05;2105730;84;29741;-64
2022/05/02 07:59:42;;;;;;;18.02;12.58;;;;;;;23.41;36.63;100538.25;2105650;84;27692;-70
2022/05/02 08:02:45;;;;;;;15.32;11.40;;;;;;;23.37;36.14;100540.93;2105777;84;28683;-59
2022/05/02 08:05:51;;;;;;;22.85;12.78;;;;;;;23.25;36.24;100548.48;2102516;84;31948;-59
2022/05/02 08:09:01;;;;;;;18.23;12.45;;;;;;;23.31;36.22;100547.03;2105759;84;32952;-59
2022/05/02 08:12:48;;;;;;;16.57;12.15;;;;;;;23.39;36.04;100540.27;2105497;84;29914;-59
2022/05/02 08:16:06;;;;;;;18.57;12.05;;;;;;;23.49;36.15;100542.95;2105944;84;27648;-59
2022/05/02 08:19:25;;;;;;;21.50;12.15;;;;;;;23.73;36.08;100536.86;2103370;84;29294;-61
2022/05/02 08:30:18;;;;;;;16.20;11.38;;;;;;;24.17;35.19;100536.06;2105718;84;30219;-59
2022/05/02 08:33:25;;;;;;;15.10;10.98;;;;;;;24.32;34.85;100543.20;2106004;84;28224;-61
2022/05/02 08:36:42;;;;;;;14.30;10.03;;;;;;;24.59;34.80;100538.57;2106043;84;27930;-60
2022/05/02 08:40:14;;;;;;;13.72;10.25;;;;;;;24.77;34.11;100533.56;2105851;84;32044;-60
2022/05/02 08:44:05;;;;;;;14.45;10.30;;;;;;;24.91;33.66;100536.17;2026940;87;33874;-60
2022/05/02 08:47:41;;;;;;;13.38;9.40;;;;;;;25.01;33.30;100534.18;2027078;87;29919;-62
2022/05/02 08:51:21;;;;;;;22.05;10.55;;;;;;;25.08;33.21;100527.52;2025452;87;27851;-59
2022/05/02 08:54:37;;;;;;;13.88;9.88;;;;;;;25.12;32.58;100520.16;2024803;87;29188;-61
2022/05/02 08:58:25;;;;;;;12.40;9.65;;;;;;;25.12;32.17;100525.64;2026796;87;31203;-60
2022/05/02 09:02:05;;;;;;;17.50;10.95;;;;;;;25.20;32.25;100521.23;2026642;87;34277;-58
2022/05/02 09:05:34;;;;;;;12.53;10.10;;;;;;;25.29;31.60;100525.20;2027139;87;29225;-60
2022/05/02 09:09:04;;;;;;;11.88;9.40;;;;;;;25.15;30.88;100513.51;2027220;87;27737;-59
2022/05/02 09:12:31;;;;;;;11.83;8.50;;;;;;;25.26;30.54;100517.30;2026991;87;28674;-59
2022/05/02 09:15:57;;;;;;;12.60;8.78;;;;;;;25.28;29.75;100516.62;2026973;87;31060;-59
2022/05/02 09:19:45;;;;;;;11.18;7.67;;;;;;;25.27;30.30;100516.28;2043759;84;33028;-59
2022/05/02 09:23:26;;;;;;;15.38;9.25;;;;;;;25.33;29.91;100514.22;2106046;84;29827;-60
2022/05/02 09:26:49;;;;;;;13.95;9.43;;;;;;;25.22;29.39;100513.70;2105612;84;27743;-60
2022/05/02 09:30:15;;;;;;;12.33;9.10;;;;;;;25.18;29.12;100514.02;2088311;85;29103;-59
2022/05/02 09:33:37;;;;;;;11.50;9.53;;;;;;;25.02;29.52;100503.84;2046898;86;27831;-59
2022/05/02 09:37:02;;;;;;;12.10;8.90;;;;;;;24.98;29.54;100497.01;2069765;86;32963;-59
2022/05/02 09:40:12;;;;;;;10.73;8.83;;;;;;;24.81;30.11;100501.55;2069621;85;30219;-58
2022/05/02 09:49:33;;;;;;;10.72;8.30;;;;;;;24.49;29.11;100498.97;2069306;86;27705;-60
2022/05/02 09:50:35;;;;;;;9.93;7.00;;;;;;;23.67;28.90;100495.95;2093238;85;32487;-65
2022/05/02 09:53:48;;;;;;;11.93;6.83;;;;;;;23.42;28.56;100493.49;2094084;85;33868;-65
2022/05/02 09:56:54;;;;;;;9.23;6.58;;;;;;;23.17;28.12;100493.19;2108782;84;30384;-57
2022/05/02 10:03:24;;;;;;;8.85;6.80;;;;;;;22.90;28.65;100486.74;2108966;84;29902;-58
2022/05/02 10:06:52;;;;;;;9.80;5.80;;;;;;;22.73;27.72;100487.06;2069215;85;31141;-64
2022/05/02 10:10:07;;;;;;;11.35;7.15;;;;;;;22.54;27.79;100474.33;2069410;86;33858;-59
2022/05/02 10:13:29;;;;;;;11.38;7.70;;;;;;;22.41;27.95;100473.30;2069777;86;30282;-57
2022/05/02 10:16:42;;;;;;;13.32;6.35;;;;;;;22.29;28.16;100471.73;2024403;87;27885;-61
2022/05/02 10:19:58;;;;;;;10.82;7.22;;;;;;;22.16;28.90;100471.56;2020500;88;28675;-62
2022/05/02 10:23:15;;;;;;;12.07;7.40;;;;;;;22.12;29.03;100469.28;2022503;88;32383;-64
2022/05/02 10:26:32;;;;;;;8.88;6.72;;;;;;;22.10;29.67;100470.77;2000367;88;32985;-59
2022/05/02 10:30:07;;;;;;;10.90;6.47;;;;;;;22.07;29.07;100456.58;2104363;83;29009;-57
2022/05/02 10:33:12;;;;;;;;;;;;;;;22.05;29.40;100450.41;2122171;84;28472;-62
2022/05/02 10:36:16;;;;;;;9.50;6.53;;;;;;;22.12;29.17;100446.94;2119132;84;28620;-62
2022/05/02 10:39:47;;;;;;;9.40;6.47;;;;;;;22.14;28.87;100440.83;2118763;84;32358;-61
2022/05/02 10:42:52;;;;;;;9.70;6.12;;;;;;;22.12;28.81;100440.11;2117367;84;32922;-71
2022/05/02 10:45:54;;;;;;;11.48;8.10;;;;;;;22.10;29.79;100438.03;2118846;84;30258;-63
2022/05/02 10:49:03;;;;;;;10.23;8.10;;;;;;;22.10;28.61;100442.65;2119567;84;27703;-61
2022/05/02 10:52:16;;;;;;;12.93;7.92;;;;;;;22.08;29.22;100435.11;2125753;82;29331;-58
2022/05/02 10:55:28;;;;;;;16.12;9.33;;;;;;;22.10;29.54;100433.09;2124313;82;30997;-57
2022/05/02 10:58:34;;;;;;;15.72;9.68;;;;;;;22.11;29.50;100436.19;2036042;87;34942;-65
2022/05/02 11:02:04;;;;;;;11.97;8.20;;;;;;;22.05;29.53;100420.39;2036269;87;29600;-62
2022/05/02 11:05:17;;;;;;;14.45;8.70;;;;;;;22.01;29.40;100426.66;2036518;87;28188;-58
2022/05/02 11:08:31;;;;;;;16.00;9.70;;;;;;;21.97;29.01;100422.50;2035039;87;29932;-64
2022/05/02 11:11:49;;;;;;;21.07;10.50;;;;;;;21.94;29.48;100415.48;2036970;87;31820;-62
2022/05/02 11:15:18;;;;;;;16.20;9.03;;;;;;;21.91;29.01;100424.47;2036826;87;33544;-59
2022/05/02 11:22:28;;;;;;;10.08;8.70;;;;;;;21.83;29.23;100407.48;2028886;87;28312;-59
2022/05/02 11:25:35;;;;;;;12.30;8.50;;;;;;;21.76;29.65;100408.54;2028853;87;30082;-65
2022/05/02 11:28:51;;;;;;;16.80;8.15;;;;;;;21.77;29.96;100403.45;2031702;87;31046;-66
2022/05/02 11:32:06;;;;;;;9.98;7.15;;;;;;;21.75;29.49;100401.39;2036953;87;33195;-72
2022/05/02 11:35:14;;;;;;;13.20;7.92;;;;;;;21.70;29.77;100400.97;2044944;86;29447;-72
2022/05/02 11:38:47;;;;;;;14.58;9.20;;;;;;;21.63;29.34;100397.97;2063891;86;28223;-75
2022/05/02 11:41:51;;;;;;;10.70;7.80;;;;;;;21.50;29.35;100394.14;2043699;87;29556;-59
2022/05/02 11:45:13;;;;;;;11.40;7.00;;;;;;;21.38;29.13;100393.95;2098697;84;31195;-58
2022/05/02 11:48:26;;;;;;;13.48;7.08;;;;;;;21.23;29.37;100383.97;2099046;84;33050;-74
2022/05/02 11:51:39;;;;;;;10.38;7.47;;;;;;;21.30;29.88;100392.42;2097564;84;29820;-57
2022/05/02 11:54:42;;;;;;;13.03;8.35;;;;;;;21.35;29.74;100377.88;2098377;84;27769;-68
2022/05/02 11:57:51;;;;;;;9.50;6.67;;;;;;;21.36;29.47;100379.08;2109081;82;29137;-58
2022/05/02 12:01:09;;;;;;;12.45;7.60;;;;;;;21.38;29.54;100374.34;2149616;82;32246;-57
2022/05/02 12:04:09;;;;;;;11.10;6.78;;;;;;;21.38;30.20;100371.63;2148837;82;33751;-70
2022/05/02 12:07:14;;;;;;;9.30;7.42;;;;;;;21.47;30.08;100368.53;2149922;82;29059;-57
2022/05/02 12:10:16;;;;;;;9.08;6.80;;;;;;;21.52;29.53;100367.60;2149722;82;27824;-57
2022/05/02 12:13:20;;;;;;;11.43;6.92;;;;;;;21.46;29.34;100367.33;2102346;82;28679;-57
2022/05/02 12:16:22;;;;;;;11.00;6.75;;;;;;;21.35;29.44;100365.09;2115902;84;32200;-57
2022/05/02 12:19:30;;;;;;;12.25;7.60;;;;;;;21.27;29.39;100370.42;2149770;82;34147;-58
2022/05/02 12:22:34;;;;;;;13.65;7.62;;;;;;;21.16;29.48;100368.70;2149782;82;29894;-59
2022/05/02 12:25:49;;;;;;;10.30;7.33;;;;;;;21.06;29.39;100359.69;2149998;82;28166;-57
2022/05/02 12:28:53;;;;;;;;;;;;;;;20.98;29.67;100354.08;2111775;84;28644;-65
2022/05/02 12:32:02;;;;;;;11.83;6.87;;;;;;;20.97;29.55;100351.86;2109217;84;31412;-57
2022/05/02 12:35:06;;;;;;;7.95;5.78;;;;;;;20.94;29.71;100343.98;2108376;84;33937;-65
2022/05/02 12:38:24;;;;;;;8.03;6.13;;;;;;;20.97;29.84;100340.09;2109300;84;29027;-72
2022/05/02 12:41:27;;;;;;;8.38;5.80;;;;;;;21.04;29.70;100335.81;2108104;84;28274;-58
2022/05/02 12:44:35;;;;;;;14.28;6.50;;;;;;;21.09;29.55;100338.45;2109202;84;28853;-69
2022/05/02 12:47:53;;;;;;;9.33;6.90;;;;;;;21.09;29.92;100328.08;2103814;84;32507;-57
2022/05/02 12:50:58;;;;;;;10.70;7.30;;;;;;;21.10;29.70;100326.55;2109124;84;32995;-71
2022/05/02 12:54:13;;;;;;;11.22;6.08;;;;;;;21.02;29.91;100326.40;2109184;84;29783;-70
2022/05/02 13:00:36;;;;;;;10.13;7.08;;;;;;;20.96;29.85;100325.63;2039557;87;30298;-62
2022/05/02 13:03:39;;;;;;;13.85;6.60;;;;;;;20.92;29.94;100318.26;2039512;87;31800;-58
2022/05/02 13:06:41;;;;;;;9.13;5.97;;;;;;;20.98;30.09;100321.39;2039642;87;33122;-64
2022/05/02 13:09:43;;;;;;;7.78;5.47;;;;;;;21.08;30.28;100314.94;2039779;87;29836;-58
2022/05/02 13:13:17;;;;;;;7.80;5.58;;;;;;;21.14;29.84;100305.84;2039490;87;27854;-58
2022/05/02 13:16:44;;;;;;;7.28;5.85;;;;;;;21.20;30.07;100298.43;2039727;87;28669;-59
2022/05/02 13:19:48;;;;;;;7.28;5.55;;;;;;;21.37;30.05;100299.05;2039749;87;32024;-60
2022/05/02 13:23:10;;;;;;;9.18;5.22;;;;;;;21.55;29.63;100299.65;2039472;87;37317;-59
2022/05/02 13:26:27;;;;;;;7.80;5.65;;;;;;;21.66;30.11;100300.89;2039695;87;29255;-57
2022/05/02 13:29:40;;;;;;;8.18;5.42;;;;;;;21.78;29.79;100292.00;2059539;85;27775;-60
2022/05/02 13:32:57;;;;;;;10.50;5.33;;;;;;;21.91;29.85;100291.66;2091747;82;28740;-59
2022/05/02 13:36:05;;;;;;;8.95;5.80;;;;;;;22.01;29.78;100287.01;2149691;82;31030;-58
2022/05/02 13:39:24;;;;;;;7.35;5.67;;;;;;;22.12;29.51;100279.66;2133602;82;33086;-61
2022/05/02 13:42:43;;;;;;;9.10;5.65;;;;;;;22.13;29.06;100280.01;2149169;82;29025;-58
2022/05/02 13:45:53;;;;;;;10.43;5.35;;;;;;;22.13;29.22;100275.91;2149949;82;27635;-59
2022/05/02 13:49:28;;;;;;;7.97;5.62;;;;;;;22.15;28.89;100276.62;2149865;82;29196;-59
2022/05/02 13:53:01;;;;;;;7.47;5.60;;;;;;;22.22;29.08;100272.78;2090160;85;31526;-58
2022/05/02 13:56:21;;;;;;;10.10;5.17;;;;;;;22.30;29.03;100261.94;2028665;87;33768;-58
2022/05/02 13:59:53;;;;;;;7.58;5.45;;;;;;;22.37;29.33;100259.45;2028742;87;29054;-58
2022/05/02 14:03:15;;;;;;;5.85;4.70;;;;;;;22.44;29.22;100260.07;2028896;87;28475;-65
2022/05/02 14:06:22;;;;;;;9.13;5.42;;;;;;;22.45;29.00;100261.79;2028207;87;29343;-59
2022/05/02 14:09:39;;;;;;;6.50;5.37;;;;;;;22.44;29.12;100255.97;2027746;87;31887;-58
2022/05/02 14:12:40;;;;;;;6.87;4.97;;;;;;;22.46;28.69;100257.20;2028091;87;33620;-60
2022/05/02 14:15:44;;;;;;;11.93;6.62;;;;;;;22.43;28.53;100250.69;2028325;87;30008;-67
2022/05/02 14:18:54;;;;;;;11.18;5.75;;;;;;;22.41;28.63;100252.67;2028787;87;27816;-64
2022/05/02 14:21:56;;;;;;;7.05;5.10;;;;;;;22.42;28.76;100251.69;2028704;87;28655;-71
2022/05/02 14:24:59;;;;;;;8.15;5.60;;;;;;;22.39;28.61;100250.11;2028274;87;32280;-71
2022/05/02 14:28:15;;;;;;;10.08;5.42;;;;;;;22.30;28.53;100249.16;2048283;84;33759;-74
2022/05/02 14:31:20;;;;;;;6.55;5.33;;;;;;;22.27;28.70;100250.83;2104341;83;30240;-70
2022/05/02 14:34:22;;;;;;;11.43;5.75;;;;;;;22.22;28.65;100241.39;2097717;84;27756;-59
2022/05/02 14:37:25;;;;;;;9.00;5.62;;;;;;;22.16;28.70;100245.60;2104462;84;29336;-60
2022/05/02 14:40:27;;;;;;;6.53;4.75;;;;;;;22.11;28.96;100235.12;2097527;84;31826;-58
2022/05/02 14:43:29;;;;;;;8.08;4.65;;;;;;;22.13;28.71;100235.83;2104500;84;34121;-60
2022/05/02 14:46:31;;;;;;;6.03;4.37;;;;;;;22.11;28.79;100231.55;2097161;84;30198;-72
2022/05/02 14:49:33;;;;;;;6.00;4.28;;;;;;;22.13;28.86;100229.53;2104751;84;27678;-62
2022/05/02 14:52:40;;;;;;;8.90;4.58;;;;;;;22.13;28.75;100229.53;2077625;84;29072;-59
2022/05/02 14:55:48;;;;;;;8.73;4.90;;;;;;;22.11;28.96;100229.66;2104573;84;31003;-58
2022/05/02 14:58:52;;;;;;;8.33;4.60;;;;;;;22.08;29.03;100224.54;2097006;84;33011;-69
2022/05/02 15:01:54;;;;;;;6.83;4.85;;;;;;;22.06;29.21;100223.83;2105025;84;29044;-63
2022/05/02 15:05:01;;;;;;;12.20;5.40;;;;;;;22.00;28.64;100225.30;2097353;84;27695;-63
2022/05/02 15:08:23;;;;;;;5.75;5.08;;;;;;;21.99;28.98;100224.08;2103760;84;29205;-60
2022/05/02 15:11:36;;;;;;;5.92;4.72;;;;;;;21.97;28.60;100226.09;2097470;84;31445;-64